createdAt,value
2023-01-07T00:02:12.055Z,19.75
2023-01-07T00:05:14.281Z,17.83
2023-01-07T00:08:16.972Z,20.15
2023-01-07T00:11:25.927Z,18.45
2023-01-07T00:14:30.228Z,18.75
2023-01-07T00:17:34.843Z,17.95
2023-01-07T00:20:37.011Z,15.82
2023-01-07T00:23:40.564Z,16.40
2023-01-07T00:26:43.574Z,16.17
2023-01-07T00:29:46.492Z,14.45
2023-01-07T00:33:04.871Z,14.32
2023-01-07T00:36:09.040Z,15.15
2023-01-07T00:39:17.106Z,14.30
2023-01-07T00:42:37.803Z,14.35
2023-01-07T00:45:42.210Z,13.90
2023-01-07T00:48:48.013Z,15.98
2023-01-07T00:51:51.787Z,13.32
2023-01-07T00:54:54.803Z,14.90
2023-01-07T00:57:58.009Z,13.50
2023-01-07T01:01:02.833Z,12.23
2023-01-07T01:04:06.602Z,13.90
2023-01-07T01:07:15.120Z,14.02
2023-01-07T01:10:22.216Z,13.57
2023-01-07T01:13:24.683Z,12.68
2023-01-07T01:16:28.902Z,13.25
2023-01-07T01:19:31.124Z,13.45
2023-01-07T01:22:35.054Z,14.02
2023-01-07T01:25:38.457Z,14.30
2023-01-07T01:28:44.273Z,13.45
2023-01-07T01:31:51.056Z,12.65
2023-01-07T01:34:53.361Z,12.13
2023-01-07T01:37:58.250Z,13.20
2023-01-07T01:41:00.465Z,13.98
2023-01-07T01:44:23.746Z,15.65
2023-01-07T01:47:35.809Z,16.52
2023-01-07T01:50:46.969Z,17.13
2023-01-07T01:53:51.585Z,14.77
2023-01-07T01:56:57.232Z,17.25
2023-01-07T02:00:05.638Z,16.50
2023-01-07T02:03:18.888Z,16.80
2023-01-07T02:06:26.136Z,17.08
2023-01-07T02:09:29.787Z,15.50
2023-01-07T02:12:54.543Z,17.70
2023-01-07T02:15:59.401Z,16.48
2023-01-07T02:19:24.450Z,17.20
2023-01-07T02:22:36.211Z,16.88
2023-01-07T02:25:48.266Z,15.82
2023-01-07T02:28:59.640Z,18.65
2023-01-07T02:32:04.989Z,16.27
2023-01-07T02:35:32.360Z,15.63
2023-01-07T02:39:03.688Z,18.08
2023-01-07T02:42:35.087Z,17.00
2023-01-07T02:45:47.573Z,16.85
2023-01-07T02:48:53.354Z,16.35
2023-01-07T02:51:55.825Z,16.80
2023-01-07T02:55:25.249Z,18.90
2023-01-07T02:58:47.992Z,16.20
2023-01-07T03:02:17.443Z,16.05
2023-01-07T03:05:22.622Z,14.77
2023-01-07T03:08:27.732Z,16.08
2023-01-07T03:11:57.352Z,15.88
2023-01-07T03:15:02.311Z,16.17
2023-01-07T03:18:16.137Z,14.65
2023-01-07T03:21:22.283Z,12.13
2023-01-07T03:24:27.052Z,13.07
2023-01-07T03:27:32.311Z,12.93
2023-01-07T03:30:36.353Z,15.07
2023-01-07T03:33:53.468Z,12.88
2023-01-07T03:37:02.889Z,12.88
2023-01-07T03:40:10.124Z,12.85
2023-01-07T03:43:15.230Z,13.27
2023-01-07T03:46:21.085Z,13.93
2023-01-07T03:49:23.643Z,13.07
2023-01-07T03:52:28.412Z,13.57
2023-01-07T03:55:31.869Z,12.23
2023-01-07T03:58:35.140Z,12.23
2023-01-07T04:01:37.315Z,12.77
2023-01-07T04:04:39.676Z,12.95
2023-01-07T04:07:42.748Z,13.32
2023-01-07T04:10:45.337Z,12.45
2023-01-07T04:13:49.901Z,13.13
2023-01-07T04:16:52.668Z,13.00
2023-01-07T04:19:55.354Z,14.35
2023-01-07T04:22:57.634Z,12.02
2023-01-07T04:26:00.311Z,12.00
2023-01-07T04:29:02.793Z,11.95
2023-01-07T04:32:06.159Z,12.18
2023-01-07T04:35:09.535Z,11.95
2023-01-07T04:38:11.729Z,12.13
2023-01-07T04:41:13.922Z,12.15
2023-01-07T04:44:19.052Z,12.82
2023-01-07T04:47:21.318Z,12.63
2023-01-07T04:50:24.815Z,11.30
2023-01-07T04:53:27.706Z,12.73
2023-01-07T04:56:31.081Z,12.75
2023-01-07T04:59:33.172Z,11.25
2023-01-07T05:02:40.061Z,11.52
2023-01-07T05:05:44.223Z,9.15
2023-01-07T05:08:48.201Z,10.93
2023-01-07T05:11:51.703Z,10.88
2023-01-07T05:14:54.687Z,10.02
2023-01-07T05:17:58.660Z,9.32
2023-01-07T05:21:01.403Z,9.55
2023-01-07T05:24:04.186Z,8.23
2023-01-07T05:27:06.470Z,11.02
2023-01-07T05:30:10.340Z,8.63
2023-01-07T05:33:12.509Z,8.20
2023-01-07T05:36:14.768Z,8.73
2023-01-07T05:39:18.096Z,9.00
2023-01-07T05:42:20.929Z,9.05
2023-01-07T05:45:24.644Z,7.38
2023-01-07T05:48:26.890Z,9.52
2023-01-07T05:51:30.332Z,9.05
2023-01-07T05:54:32.447Z,11.98
2023-01-07T05:57:34.713Z,11.40
2023-01-07T06:00:36.963Z,11.70
2023-01-07T06:03:39.305Z,13.32
2023-01-07T06:06:45.915Z,12.35
2023-01-07T06:09:49.836Z,12.90
2023-01-07T06:12:51.846Z,13.07
2023-01-07T06:16:01.751Z,11.60
2023-01-07T06:19:04.119Z,10.80
2023-01-07T06:22:06.843Z,9.07
2023-01-07T06:25:10.116Z,9.55
2023-01-07T06:28:12.549Z,7.00
2023-01-07T06:31:14.829Z,9.98
2023-01-07T06:34:16.922Z,7.88
2023-01-07T06:37:19.666Z,8.15
2023-01-07T06:40:21.790Z,9.20
2023-01-07T06:43:23.953Z,7.57
2023-01-07T06:46:27.457Z,8.65
2023-01-07T06:49:30.109Z,8.98
2023-01-07T06:52:32.880Z,8.57
2023-01-07T06:55:35.450Z,9.65
2023-01-07T06:58:45.435Z,9.18
2023-01-07T07:01:51.636Z,9.70
2023-01-07T07:04:54.627Z,6.32
2023-01-07T07:07:57.198Z,6.50
2023-01-07T07:10:59.499Z,6.35
2023-01-07T07:14:01.784Z,6.28
2023-01-07T07:17:04.846Z,5.40
2023-01-07T07:20:07.729Z,5.97
2023-01-07T07:23:11.135Z,9.02
2023-01-07T07:26:14.296Z,10.13
2023-01-07T07:29:16.953Z,10.77
2023-01-07T07:32:19.248Z,9.73
2023-01-07T07:35:25.548Z,9.05
2023-01-07T07:38:30.907Z,9.23
2023-01-07T07:41:32.999Z,7.65
2023-01-07T07:44:36.637Z,8.45
2023-01-07T07:47:38.842Z,7.35
2023-01-07T07:50:41.513Z,8.48
2023-01-07T07:53:43.983Z,9.43
2023-01-07T07:56:47.318Z,8.68
2023-01-07T07:59:53.561Z,9.23
2023-01-07T08:02:59.687Z,7.88
2023-01-07T08:06:04.521Z,9.07
2023-01-07T08:09:09.982Z,9.75
2023-01-07T08:12:12.593Z,10.73
2023-01-07T08:15:14.648Z,10.82
2023-01-07T08:18:19.363Z,9.15
2023-01-07T08:21:23.309Z,8.32
2023-01-07T08:24:26.110Z,9.50
2023-01-07T08:27:28.966Z,14.43
2023-01-07T08:30:31.212Z,9.45
2023-01-07T08:33:37.800Z,11.35
2023-01-07T08:36:40.057Z,9.43
2023-01-07T08:39:42.350Z,11.63
2023-01-07T08:42:44.423Z,12.88
2023-01-07T08:45:50.169Z,12.48
2023-01-07T08:48:52.245Z,10.35
2023-01-07T08:51:57.404Z,8.48
2023-01-07T08:54:59.630Z,12.13
2023-01-07T08:58:11.662Z,12.80
2023-01-07T09:01:14.343Z,11.55
2023-01-07T09:04:16.633Z,8.05
2023-01-07T09:07:19.735Z,8.90
2023-01-07T09:10:21.963Z,8.65
2023-01-07T09:13:25.853Z,7.93
2023-01-07T09:16:28.100Z,8.52
2023-01-07T09:19:30.228Z,8.30
2023-01-07T09:22:34.053Z,8.25
2023-01-07T09:25:38.026Z,9.30
2023-01-07T09:28:40.645Z,9.55
2023-01-07T09:31:47.297Z,9.45
2023-01-07T09:34:54.164Z,9.27
2023-01-07T09:37:56.294Z,9.77
2023-01-07T09:40:58.793Z,8.40
2023-01-07T09:44:14.883Z,7.63
2023-01-07T09:47:22.257Z,10.05
2023-01-07T09:50:38.662Z,8.40
2023-01-07T09:53:44.935Z,7.65
2023-01-07T09:56:47.327Z,8.50
2023-01-07T09:59:49.472Z,9.00
2023-01-07T10:02:52.714Z,8.93
2023-01-07T10:06:26.183Z,8.48
2023-01-07T10:10:12.808Z,9.63
2023-01-07T10:13:51.520Z,8.40
2023-01-07T10:16:59.810Z,9.85
2023-01-07T10:20:08.501Z,7.55
2023-01-07T10:23:14.631Z,8.10
2023-01-07T10:26:39.469Z,8.13
2023-01-07T10:29:53.953Z,8.25
2023-01-07T10:33:18.677Z,8.38
2023-01-07T10:36:25.507Z,7.40
2023-01-07T10:40:01.233Z,6.85
2023-01-07T10:43:25.657Z,6.85
2023-01-07T10:46:42.958Z,8.07
2023-01-07T10:50:24.490Z,7.82
2023-01-07T10:53:29.325Z,7.40
2023-01-07T10:56:32.728Z,7.80
2023-01-07T10:59:41.474Z,7.23
2023-01-07T11:02:54.999Z,6.95
2023-01-07T11:06:09.463Z,6.90
2023-01-07T11:09:21.944Z,7.57
2023-01-07T11:12:37.024Z,7.35
2023-01-07T11:15:56.156Z,5.75
2023-01-07T11:19:14.570Z,5.47
2023-01-07T11:22:33.662Z,5.70
2023-01-07T11:25:35.800Z,5.25
2023-01-07T11:28:42.896Z,6.18
2023-01-07T11:31:51.013Z,5.38
2023-01-07T11:35:20.662Z,6.95
2023-01-07T11:38:37.861Z,5.50
2023-01-07T11:41:54.750Z,4.97
2023-01-07T11:45:21.393Z,5.07
2023-01-07T11:48:33.613Z,6.40
2023-01-07T11:51:40.805Z,7.70
2023-01-07T11:54:43.257Z,6.70
2023-01-07T11:58:27.701Z,5.32
2023-01-07T12:01:30.266Z,6.75
2023-01-07T12:04:43.879Z,5.72
2023-01-07T12:07:51.497Z,6.15
2023-01-07T12:11:00.317Z,5.80
2023-01-07T12:14:27.664Z,6.28
2023-01-07T12:17:35.583Z,6.63
2023-01-07T12:21:14.282Z,7.35
2023-01-07T12:24:35.990Z,9.95
2023-01-07T12:27:57.112Z,23.25
2023-01-07T12:31:27.760Z,11.25
2023-01-07T12:34:50.747Z,11.98
2023-01-07T12:38:22.715Z,10.45
2023-01-07T12:41:33.724Z,9.70
2023-01-07T12:44:46.660Z,9.02
2023-01-07T12:47:53.853Z,9.07
2023-01-07T12:51:02.298Z,9.13
2023-01-07T12:57:15.401Z,8.50
2023-01-07T13:00:23.340Z,8.77
2023-01-07T13:03:47.719Z,8.00
2023-01-07T13:07:01.976Z,10.10
2023-01-07T13:10:13.125Z,7.88
2023-01-07T13:13:31.127Z,9.18
2023-01-07T13:16:34.449Z,8.65
2023-01-07T13:19:36.665Z,9.40
2023-01-07T13:22:45.124Z,9.45
2023-01-07T13:26:13.083Z,10.00
2023-01-07T13:29:42.421Z,9.50
2023-01-07T13:33:00.856Z,9.48
2023-01-07T13:36:18.437Z,8.25
2023-01-07T13:39:32.454Z,10.07
2023-01-07T13:42:55.581Z,7.57
2023-01-07T13:46:02.885Z,9.23
2023-01-07T13:49:06.193Z,9.02
2023-01-07T13:52:24.018Z,9.05
2023-01-07T13:55:35.188Z,9.73
2023-01-07T13:58:51.258Z,8.05
2023-01-07T14:02:20.716Z,8.63
2023-01-07T14:08:31.563Z,7.97
2023-01-07T14:11:33.582Z,7.65
2023-01-07T14:14:58.538Z,7.80
2023-01-07T14:18:07.772Z,8.35
2023-01-07T14:21:19.753Z,10.05
2023-01-07T14:24:44.809Z,8.20
2023-01-07T14:28:05.318Z,9.85
2023-01-07T14:31:21.221Z,8.65
2023-01-07T14:34:29.062Z,7.97
2023-01-07T14:37:37.662Z,9.23
2023-01-07T14:40:42.719Z,8.13
2023-01-07T14:47:53.632Z,7.80
2023-01-07T14:51:10.898Z,10.02
2023-01-07T14:54:48.855Z,8.80
2023-01-07T14:58:00.144Z,9.73
2023-01-07T15:01:28.112Z,9.15
2023-01-07T15:04:38.905Z,11.70
2023-01-07T15:08:13.841Z,10.77
2023-01-07T15:12:13.162Z,11.77
2023-01-07T15:16:41.643Z,9.65
2023-01-07T15:30:53.895Z,11.20
2023-01-07T15:34:22.712Z,10.10
2023-01-07T15:38:00.407Z,10.93
2023-01-07T15:41:04.854Z,8.80
2023-01-07T15:49:32.703Z,13.50
2023-01-07T15:52:34.838Z,11.05
2023-01-07T16:00:27.043Z,10.77
2023-01-07T16:03:33.843Z,10.57
2023-01-07T16:06:39.558Z,11.82
2023-01-07T16:09:46.778Z,11.10
2023-01-07T16:12:51.910Z,12.40
2023-01-07T16:15:56.606Z,13.35
2023-01-07T16:19:01.063Z,12.50
2023-01-07T16:22:04.963Z,12.52
2023-01-07T16:25:16.465Z,11.38
2023-01-07T16:28:27.606Z,11.05
2023-01-07T16:31:31.343Z,11.95
2023-01-07T16:34:38.850Z,11.10
2023-01-07T16:37:41.756Z,13.90
2023-01-07T16:40:48.133Z,12.45
2023-01-07T16:43:58.356Z,12.00
2023-01-07T16:47:23.896Z,12.43
2023-01-07T16:50:36.964Z,13.05
2023-01-07T16:53:39.339Z,12.60
2023-01-07T16:56:48.588Z,12.55
2023-01-07T16:59:57.217Z,11.82
2023-01-07T17:03:13.283Z,12.97
2023-01-07T17:06:19.310Z,12.07
2023-01-07T17:09:40.088Z,12.20
2023-01-07T17:13:31.847Z,10.98
2023-01-07T17:16:38.491Z,12.02
2023-01-07T17:20:08.767Z,12.38
2023-01-07T17:23:26.548Z,11.37
2023-01-07T17:26:29.728Z,11.57
2023-01-07T17:29:42.958Z,12.18
2023-01-07T17:32:47.420Z,13.38
2023-01-07T17:35:51.843Z,14.73
2023-01-07T17:38:54.783Z,12.55
2023-01-07T17:42:16.180Z,12.88
2023-01-07T17:45:20.158Z,13.27
2023-01-07T17:48:24.842Z,12.88
2023-01-07T17:51:29.528Z,13.32
2023-01-07T17:54:33.967Z,14.50
2023-01-07T17:57:35.891Z,13.65
2023-01-07T18:00:42.119Z,15.05
2023-01-07T18:03:48.485Z,12.15
2023-01-07T18:06:58.620Z,13.15
2023-01-07T18:10:18.131Z,15.07
2023-01-07T18:13:46.114Z,11.57
2023-01-07T18:16:59.446Z,11.57
2023-01-07T18:20:08.711Z,10.48
2023-01-07T18:23:12.356Z,12.90
2023-01-07T18:26:19.210Z,12.50
2023-01-07T18:29:26.048Z,11.55
2023-01-07T18:32:34.105Z,11.18
2023-01-07T18:35:45.582Z,11.13
2023-01-07T18:38:49.788Z,10.85
2023-01-07T18:41:56.208Z,11.38
2023-01-07T18:45:00.429Z,10.57
2023-01-07T18:48:20.210Z,10.68
2023-01-07T18:51:28.299Z,12.82
2023-01-07T18:54:32.408Z,12.98
2023-01-07T19:01:08.190Z,15.25
2023-01-07T19:04:10.593Z,13.65
2023-01-07T19:07:15.290Z,12.23
2023-01-07T19:10:23.110Z,12.23
2023-01-07T19:13:28.126Z,12.35
2023-01-07T19:16:31.493Z,10.40
2023-01-07T19:19:47.798Z,11.93
2023-01-07T19:23:12.073Z,10.98
2023-01-07T19:26:19.261Z,11.80
2023-01-07T19:29:30.181Z,13.25
2023-01-07T19:32:36.583Z,14.90
2023-01-07T19:35:41.175Z,14.18
2023-01-07T19:39:00.140Z,12.15
2023-01-07T19:42:05.281Z,15.23
2023-01-07T19:45:10.881Z,11.48
2023-01-07T19:48:33.460Z,12.77
2023-01-07T19:51:52.550Z,11.40
2023-01-07T19:55:25.174Z,12.57
2023-01-07T19:58:28.349Z,13.30
2023-01-07T20:01:39.813Z,14.50
2023-01-07T20:04:49.818Z,11.85
2023-01-07T20:08:00.515Z,14.05
2023-01-07T20:11:11.927Z,12.85
2023-01-07T20:14:16.343Z,14.95
2023-01-07T20:17:18.331Z,15.80
2023-01-07T20:20:24.624Z,16.25
2023-01-07T20:23:27.495Z,22.17
2023-01-07T20:26:49.516Z,17.60
2023-01-07T20:29:53.443Z,13.30
2023-01-07T20:32:55.615Z,14.02
2023-01-07T20:36:03.622Z,14.57
2023-01-07T20:39:06.292Z,17.75
2023-01-07T20:42:08.446Z,15.32
2023-01-07T20:45:25.881Z,17.02
2023-01-07T20:48:45.477Z,13.27
2023-01-07T20:51:48.980Z,14.93
2023-01-07T20:54:51.157Z,16.27
2023-01-07T20:57:53.914Z,15.32
2023-01-07T21:00:56.471Z,16.90
2023-01-07T21:03:59.258Z,17.17
2023-01-07T21:07:01.455Z,14.52
2023-01-07T21:10:13.061Z,16.25
2023-01-07T21:13:15.645Z,15.55
2023-01-07T21:16:18.677Z,20.65
2023-01-07T21:19:21.059Z,16.23
2023-01-07T21:22:23.178Z,19.60
2023-01-07T21:25:25.237Z,20.13
2023-01-07T21:28:27.431Z,20.23
2023-01-07T21:31:30.211Z,15.50
2023-01-07T21:34:32.461Z,15.02
2023-01-07T21:37:37.363Z,14.73
2023-01-07T21:40:39.651Z,13.35
2023-01-07T21:43:42.333Z,14.43
2023-01-07T21:46:44.651Z,14.25
2023-01-07T21:49:46.715Z,14.60
2023-01-07T21:52:48.826Z,15.80
2023-01-07T21:55:51.025Z,13.13
2023-01-07T21:58:53.334Z,14.00
2023-01-07T22:01:55.745Z,15.35
2023-01-07T22:04:58.651Z,14.95
2023-01-07T22:08:00.859Z,15.20
2023-01-07T22:11:03.480Z,14.15
2023-01-07T22:14:05.974Z,15.15
2023-01-07T22:17:10.706Z,13.82
2023-01-07T22:20:12.993Z,14.63
2023-01-07T22:23:39.691Z,15.85
2023-01-07T22:26:43.157Z,15.50
2023-01-07T22:29:46.851Z,14.73
2023-01-07T22:32:49.030Z,14.27
2023-01-07T22:35:52.017Z,14.50
2023-01-07T22:38:57.734Z,14.15
2023-01-07T22:42:06.142Z,14.15
2023-01-07T22:45:17.905Z,13.25
2023-01-07T22:48:24.456Z,12.95
2023-01-07T22:51:31.930Z,13.57
2023-01-07T22:54:36.391Z,14.05
2023-01-07T22:57:39.430Z,14.60
2023-01-07T23:00:51.326Z,15.23
2023-01-07T23:03:53.577Z,16.17
2023-01-07T23:06:57.512Z,15.05
2023-01-07T23:09:59.751Z,14.60
2023-01-07T23:13:01.837Z,15.85
2023-01-07T23:16:06.831Z,14.55
2023-01-07T23:19:10.718Z,16.35
2023-01-07T23:22:14.243Z,14.73
2023-01-07T23:25:16.500Z,16.17
2023-01-07T23:28:19.819Z,18.45
2023-01-07T23:31:21.996Z,17.55
2023-01-07T23:34:24.070Z,17.27
2023-01-07T23:37:26.760Z,19.33
2023-01-07T23:40:28.968Z,17.95
2023-01-07T23:43:32.371Z,16.15
2023-01-07T23:46:38.792Z,15.48
2023-01-07T23:49:43.416Z,17.17
2023-01-07T23:52:46.222Z,16.20
2023-01-07T23:55:58.357Z,16.90
2023-01-07T23:59:02.944Z,16.98
